Time;durP1;ratioP1;P1;durP2;ratioP2;P2;SDS_P1;SDS_P2;PMS_P1;PMS_P2;Temp;Humidity;BMP_temperature;BMP_pressure;BME280_temperature;BME280_humidity;BME280_pressure;Samples;Min_cycle;Max_cycle;Signal;HPM_P1;HPM_P2
2023/09/17 00:01:54;;;;;;;4.90;4.50;;;;;;;22.17;73.36;157066.00;4984538;28;20852;-83
2023/09/17 00:04:21;;;;;;;5.00;4.53;;;;;;;22.12;73.37;157052.94;4976979;28;20461;-84
2023/09/17 00:06:47;;;;;;;5.50;5.00;;;;;;;22.06;73.51;157038.56;4984797;28;20457;-84
2023/09/17 00:09:14;;;;;;;5.23;4.73;;;;;;;22.01;73.86;157025.53;4986142;28;20473;-84
2023/09/17 00:11:40;;;;;;;4.83;4.43;;;;;;;21.98;74.33;157017.69;4998110;28;20461;-85
2023/09/17 00:14:08;;;;;;;5.13;4.63;;;;;;;21.96;74.76;157011.16;5000519;28;20551;-84
2023/09/17 00:16:38;;;;;;;4.97;4.47;;;;;;;21.91;74.81;156998.09;4988869;28;20468;-84
2023/09/17 00:19:05;;;;;;;5.50;5.00;;;;;;;21.86;75.02;156986.38;4985595;28;20886;-84
2023/09/17 00:21:31;;;;;;;5.43;4.93;;;;;;;21.81;75.23;156974.56;4987267;28;20452;-83
2023/09/17 00:23:58;;;;;;;5.53;4.70;;;;;;;21.76;75.68;156961.47;4989057;28;20440;-84
2023/09/17 00:26:24;;;;;;;5.70;5.20;;;;;;;21.70;76.09;156945.84;4987158;28;20449;-84
2023/09/17 00:28:51;;;;;;;5.50;5.00;;;;;;;21.67;76.57;156938.00;4984290;28;20457;-84
2023/09/17 00:31:19;;;;;;;7.03;5.07;;;;;;;21.62;76.33;156923.63;4982283;28;20453;-84
2023/09/17 00:33:46;;;;;;;6.27;4.83;;;;;;;21.57;76.82;156911.91;4970088;28;20916;-84
2023/09/17 00:36:13;;;;;;;6.17;5.57;;;;;;;21.53;77.04;156900.13;4987646;28;20441;-84
2023/09/17 00:38:39;;;;;;;5.53;5.03;;;;;;;21.49;77.03;156891.03;4968590;28;20461;-83
2023/09/17 00:41:06;;;;;;;6.30;5.60;;;;;;;21.43;77.74;156874.03;4990979;28;20448;-83
2023/09/17 00:43:34;;;;;;;5.63;5.13;;;;;;;21.40;78.18;156866.19;4956930;28;20466;-84
2023/09/17 00:46:00;;;;;;;5.90;5.30;;;;;;;21.37;77.88;156859.66;4987855;28;20457;-83
2023/09/17 00:48:28;;;;;;;6.50;5.27;;;;;;;21.30;78.49;156840.09;4981834;28;20549;-83
2023/09/17 00:50:55;;;;;;;5.70;5.10;;;;;;;21.29;78.48;156838.78;4987963;28;20959;-83
2023/09/17 00:53:22;;;;;;;6.10;5.50;;;;;;;21.26;78.83;156830.94;4987066;28;20460;-83
2023/09/17 00:55:49;;;;;;;6.00;5.40;;;;;;;21.23;79.09;156823.16;4991694;28;20502;-83
2023/09/17 00:58:15;;;;;;;5.80;5.27;;;;;;;21.21;79.20;156819.22;4974265;28;20447;-83
2023/09/17 01:00:44;;;;;;;5.90;5.27;;;;;;;21.21;79.44;156817.91;4990135;28;20444;-83
2023/09/17 01:03:12;;;;;;;6.13;5.53;;;;;;;21.16;79.39;156804.84;5022010;28;20830;-83
2023/09/17 01:05:43;;;;;;;6.43;5.67;;;;;;;21.13;79.48;156797.00;5008515;28;20513;-84
2023/09/17 01:08:10;;;;;;;5.87;5.27;;;;;;;21.09;79.74;156786.59;5008693;28;20447;-83
2023/09/17 01:10:39;;;;;;;5.97;5.47;;;;;;;21.07;80.28;156782.69;5008312;28;20893;-83
2023/09/17 01:13:06;;;;;;;5.73;4.97;;;;;;;21.04;80.62;156773.50;5006004;28;20455;-83
2023/09/17 01:15:34;;;;;;;6.87;5.93;;;;;;;21.01;80.65;156766.97;4959467;28;20461;-84
2023/09/17 01:18:01;;;;;;;6.90;6.30;;;;;;;21.00;81.00;156764.34;4988584;28;20542;-84
2023/09/17 01:20:31;;;;;;;7.53;6.30;;;;;;;20.99;81.07;156761.75;5008082;28;20970;-84
2023/09/17 01:23:02;;;;;;;6.33;5.73;;;;;;;20.96;81.08;156753.94;4985628;28;20471;-84
2023/09/17 01:25:40;;;;;;;7.00;5.40;;;;;;;20.92;81.32;156742.16;4971601;28;20464;-84
2023/09/17 01:28:08;;;;;;;6.07;5.47;;;;;;;20.93;81.28;156746.09;4986408;28;20449;-84
2023/09/17 01:30:35;;;;;;;6.40;5.80;;;;;;;20.92;81.50;156742.16;4990948;28;20473;-84
2023/09/17 01:33:03;;;;;;;7.23;6.50;;;;;;;20.92;81.61;156742.16;5001558;28;21023;-84
2023/09/17 01:35:30;;;;;;;6.60;6.00;;;;;;;20.88;82.16;156733.06;4990157;28;20451;-84
2023/09/17 01:38:00;;;;;;;7.13;6.47;;;;;;;20.87;82.47;156730.41;4983733;28;20476;-84
2023/09/17 01:40:29;;;;;;;7.63;6.80;;;;;;;20.86;82.75;156726.53;5007188;28;20450;-84
2023/09/17 01:42:56;;;;;;;6.63;6.03;;;;;;;20.85;82.66;156723.91;4974842;28;20775;-84
2023/09/17 01:45:24;;;;;;;6.83;6.13;;;;;;;20.86;82.81;156726.53;4992219;28;20759;-84
2023/09/17 01:47:51;;;;;;;6.30;5.70;;;;;;;20.85;83.26;156723.91;4976333;28;20452;-84
2023/09/17 01:50:19;;;;;;;6.07;5.47;;;;;;;20.84;83.57;156721.28;4991647;28;21045;-84
2023/09/17 01:52:46;;;;;;;6.20;5.70;;;;;;;20.83;83.95;156718.69;4983865;28;20515;-84
2023/09/17 01:55:12;;;;;;;6.73;6.13;;;;;;;20.81;83.69;156714.75;5005452;28;20457;-84
2023/09/17 01:57:39;;;;;;;6.57;5.97;;;;;;;20.80;84.13;156712.16;4993312;28;20498;-83
2023/09/17 02:00:14;;;;;;;6.90;6.17;;;;;;;20.79;84.01;156709.53;4976933;28;20455;-83
2023/09/17 02:02:46;;;;;;;6.60;6.00;;;;;;;20.76;84.71;156700.44;4980535;28;20456;-83
2023/09/17 02:05:13;;;;;;;7.93;6.40;;;;;;;20.75;84.81;156699.13;4993097;28;20460;-83
2023/09/17 02:07:40;;;;;;;6.60;6.00;;;;;;;20.76;84.56;156700.44;4991502;28;20470;-83
2023/09/17 02:10:08;;;;;;;6.47;5.87;;;;;;;20.76;85.06;156700.44;4975523;28;20563;-83
2023/09/17 02:12:34;;;;;;;7.90;6.27;;;;;;;20.78;84.83;156706.97;4998323;28;20455;-83
2023/09/17 02:15:01;;;;;;;7.30;5.50;;;;;;;20.81;85.29;156714.75;4993589;28;20456;-83
2023/09/17 02:17:28;;;;;;;6.23;5.63;;;;;;;20.84;85.80;156721.28;4967120;28;20467;-84
2023/09/17 02:19:56;;;;;;;6.57;5.70;;;;;;;20.84;85.89;156721.28;4992546;28;20453;-84
2023/09/17 02:22:23;;;;;;;6.97;6.37;;;;;;;20.85;85.68;156723.91;5011948;28;20907;-83
2023/09/17 02:24:50;;;;;;;6.77;6.17;;;;;;;20.86;86.14;156726.53;5014358;28;20981;-83
2023/09/17 02:27:16;;;;;;;6.83;6.13;;;;;;;20.85;86.32;156723.91;4990664;28;20471;-83
2023/09/17 02:29:43;;;;;;;6.57;5.97;;;;;;;20.84;85.90;156721.28;4991380;28;20546;-83
2023/09/17 02:32:10;;;;;;;7.60;5.93;;;;;;;20.84;86.24;156721.28;4992612;28;20444;-83
2023/09/17 02:34:38;;;;;;;6.33;5.73;;;;;;;20.84;86.51;156721.28;4989356;28;20440;-83
2023/09/17 02:37:06;;;;;;;7.20;6.50;;;;;;;20.80;86.01;156712.16;5008193;28;20460;-83
2023/09/17 02:39:35;;;;;;;6.60;6.00;;;;;;;20.82;86.33;156716.06;4982847;28;20456;-84
2023/09/17 02:42:02;;;;;;;6.97;6.37;;;;;;;20.81;86.68;156713.47;4995264;28;20836;-83
2023/09/17 02:44:28;;;;;;;6.50;5.90;;;;;;;20.78;87.00;156705.66;4992275;28;20543;-83
2023/09/17 02:46:55;;;;;;;6.67;5.97;;;;;;;20.73;87.62;156692.63;5008064;28;20464;-83
2023/09/17 02:49:22;;;;;;;6.27;5.67;;;;;;;20.67;87.58;156676.94;4987666;28;20452;-83
2023/09/17 02:51:49;;;;;;;7.30;6.60;;;;;;;20.59;88.61;156658.69;4992447;28;20556;-84
2023/09/17 02:54:17;;;;;;;9.47;6.83;;;;;;;20.54;88.71;156645.59;4989546;28;20464;-83
2023/09/17 02:56:43;;;;;;;7.27;6.53;;;;;;;20.51;89.30;156637.81;4975148;28;20537;-82
2023/09/17 02:59:11;;;;;;;7.63;6.83;;;;;;;20.50;89.66;156635.19;5005134;28;20455;-83
2023/09/17 03:01:40;;;;;;;7.30;6.60;;;;;;;20.48;90.13;156629.97;5008149;28;20531;-84
2023/09/17 03:04:06;;;;;;;6.63;6.03;;;;;;;20.44;89.83;156619.53;4974351;28;20532;-83
2023/09/17 03:06:33;;;;;;;7.73;6.27;;;;;;;20.42;90.24;156614.31;4992501;28;20919;-83
2023/09/17 03:09:00;;;;;;;6.23;5.73;;;;;;;20.40;89.75;156609.09;4991894;28;20575;-83
2023/09/17 03:11:28;;;;;;;9.53;6.57;;;;;;;20.41;90.13;156611.69;4974813;28;20569;-83
2023/09/17 03:14:00;;;;;;;7.57;6.87;;;;;;;20.42;89.90;156613.00;4967385;28;20449;-83
2023/09/17 03:16:27;;;;;;;7.23;6.53;;;;;;;20.42;90.55;156613.00;4987940;28;20474;-83
2023/09/17 03:18:53;;;;;;;6.90;6.20;;;;;;;20.41;90.86;156611.69;4992351;28;20447;-83
2023/09/17 03:21:20;;;;;;;7.40;6.70;;;;;;;20.34;91.28;156593.44;4988488;28;20511;-83
2023/09/17 03:23:47;;;;;;;7.53;6.73;;;;;;;20.35;92.04;156596.06;4974718;28;20444;-83
2023/09/17 03:26:13;;;;;;;7.60;6.90;;;;;;;20.28;92.41;156577.78;5010062;28;20437;-84
2023/09/17 03:28:41;;;;;;;7.37;6.67;;;;;;;20.23;92.39;156564.69;4974438;28;20456;-84
2023/09/17 03:31:08;;;;;;;7.80;7.00;;;;;;;20.19;92.68;156554.28;4973039;28;20480;-84
2023/09/17 03:33:39;;;;;;;7.30;6.27;;;;;;;20.14;93.03;156541.25;5005545;28;20455;-83
2023/09/17 03:36:06;;;;;;;7.10;6.43;;;;;;;20.11;94.68;156533.41;4990993;28;20459;-83
2023/09/17 03:38:33;;;;;;;7.23;6.53;;;;;;;20.10;94.17;156530.78;4990471;28;20833;-83
2023/09/17 03:41:04;;;;;;;8.93;7.13;;;;;;;20.11;93.86;156533.41;5007119;28;20456;-83
2023/09/17 03:43:31;;;;;;;7.03;6.33;;;;;;;20.10;94.46;156530.78;4975473;28;20463;-83
2023/09/17 03:45:59;;;;;;;7.50;6.80;;;;;;;20.10;94.96;156530.78;4973452;28;20480;-82
2023/09/17 03:48:26;;;;;;;8.07;7.30;;;;;;;20.04;95.34;156515.19;4988403;28;20895;-82
2023/09/17 03:50:53;;;;;;;7.60;6.90;;;;;;;20.01;95.97;156507.34;4973293;28;21091;-82
2023/09/17 03:53:19;;;;;;;7.87;7.17;;;;;;;19.97;95.40;156496.88;4974974;28;20453;-82
2023/09/17 03:55:46;;;;;;;7.70;7.00;;;;;;;19.99;95.72;156502.09;4992349;28;20480;-83
2023/09/17 03:58:13;;;;;;;7.67;6.87;;;;;;;19.98;95.32;156499.50;4989138;28;20537;-82
2023/09/17 04:00:42;;;;;;;7.33;6.63;;;;;;;19.99;95.13;156502.09;4967956;28;20456;-82
2023/09/17 04:03:12;;;;;;;8.30;7.50;;;;;;;19.96;95.61;156495.56;4990169;28;20834;-83
2023/09/17 04:05:39;;;;;;;7.37;6.60;;;;;;;19.91;95.92;156481.22;4970132;28;20444;-82
2023/09/17 04:08:05;;;;;;;7.70;7.00;;;;;;;19.89;95.94;156477.34;4988331;28;20471;-82
2023/09/17 04:10:32;;;;;;;8.97;8.17;;;;;;;19.87;96.69;156470.81;4990174;28;20491;-82
2023/09/17 04:12:59;;;;;;;9.30;8.27;;;;;;;19.88;96.79;156473.44;4973671;28;20924;-83
2023/09/17 04:15:26;;;;;;;7.90;7.20;;;;;;;19.87;96.53;156470.81;4993421;28;20526;-83
2023/09/17 04:17:54;;;;;;;8.03;7.23;;;;;;;19.85;97.49;156465.63;4973332;28;20731;-83
2023/09/17 04:20:24;;;;;;;8.53;7.77;;;;;;;19.83;96.66;156460.41;5008565;28;20438;-83
2023/09/17 04:22:51;;;;;;;8.80;7.57;;;;;;;19.87;96.77;156470.81;4974824;28;20564;-83
2023/09/17 04:25:19;;;;;;;8.50;7.70;;;;;;;19.89;96.38;156476.03;4987245;28;20813;-83
2023/09/17 04:27:47;;;;;;;9.30;8.40;;;;;;;19.90;96.17;156478.66;4973814;28;20455;-83
2023/09/17 04:30:16;;;;;;;8.43;7.63;;;;;;;19.88;96.22;156473.44;4989806;28;20836;-82
2023/09/17 04:32:45;;;;;;;8.07;7.27;;;;;;;19.88;96.25;156473.44;4970448;28;20965;-82
2023/09/17 04:35:15;;;;;;;8.00;7.20;;;;;;;19.88;96.49;156474.69;4987186;28;20547;-82
2023/09/17 04:37:45;;;;;;;8.20;7.50;;;;;;;19.87;96.84;156470.81;4975283;28;20507;-83
2023/09/17 04:40:12;;;;;;;7.77;7.00;;;;;;;19.88;96.29;156473.44;4990738;28;20452;-83
2023/09/17 04:42:43;;;;;;;8.27;7.47;;;;;;;19.84;96.92;156464.31;4973208;28;20471;-83
2023/09/17 04:45:11;;;;;;;8.17;7.37;;;;;;;19.79;97.26;156449.94;4989052;28;20453;-83
2023/09/17 04:47:39;;;;;;;8.37;7.63;;;;;;;19.75;97.47;156439.56;4975596;28;20495;-83
2023/09/17 04:50:08;;;;;;;8.27;7.53;;;;;;;19.70;98.35;156426.47;4977799;28;20455;-83
2023/09/17 04:52:35;;;;;;;8.10;7.30;;;;;;;19.65;98.52;156413.44;5018884;28;20496;-84
2023/09/17 04:55:04;;;;;;;8.50;7.60;;;;;;;19.63;99.06;156408.22;4970680;28;20707;-83
2023/09/17 04:57:32;;;;;;;8.17;7.37;;;;;;;19.58;99.11;156395.19;4986684;28;20464;-83
2023/09/17 05:00:01;;;;;;;8.50;7.70;;;;;;;19.56;99.27;156391.31;4992932;28;20455;-83
2023/09/17 05:02:28;;;;;;;8.20;7.40;;;;;;;19.54;99.64;156384.78;4991901;28;20844;-83
2023/09/17 05:04:56;;;;;;;9.03;8.10;;;;;;;19.51;99.66;156376.97;4981036;28;20473;-83
2023/09/17 05:07:23;;;;;;;10.07;8.90;;;;;;;19.48;99.85;156369.13;5004104;28;20531;-84
2023/09/17 05:09:50;;;;;;;11.40;10.27;;;;;;;19.42;100.00;156356.09;4976196;28;20467;-84
2023/09/17 05:12:18;;;;;;;10.67;9.40;;;;;;;19.40;100.00;156349.59;4994481;28;20492;-84
2023/09/17 05:14:45;;;;;;;9.80;8.47;;;;;;;19.40;100.00;156350.91;4971866;28;20493;-84
2023/09/17 05:17:13;;;;;;;9.17;8.37;;;;;;;19.41;100.00;156352.16;4986172;28;20475;-84
2023/09/17 05:19:46;;;;;;;10.10;8.40;;;;;;;19.42;100.00;156356.09;5002680;28;20467;-84
2023/09/17 05:22:13;;;;;;;9.07;8.17;;;;;;;19.43;100.00;156358.69;4984831;28;20830;-84
2023/09/17 05:24:42;;;;;;;8.00;7.17;;;;;;;19.44;100.00;156361.31;4991795;28;20455;-83
2023/09/17 05:27:08;;;;;;;7.70;7.00;;;;;;;19.46;100.00;156363.94;4974298;28;20459;-84
2023/09/17 05:29:36;;;;;;;8.10;7.30;;;;;;;19.47;99.99;156367.81;4973378;28;20482;-84
2023/09/17 05:32:03;;;;;;;9.27;8.10;;;;;;;19.50;99.91;156375.66;4975475;28;20484;-84
2023/09/17 05:34:33;;;;;;;12.00;7.93;;;;;;;19.53;99.86;156382.16;4982668;28;20472;-84
2023/09/17 05:36:59;;;;;;;8.27;7.30;;;;;;;19.55;99.64;156387.38;5008350;28;20460;-83
2023/09/17 05:39:26;;;;;;;7.60;6.90;;;;;;;19.56;99.47;156391.31;4980857;28;20925;-83
2023/09/17 05:41:55;;;;;;;7.67;6.93;;;;;;;19.60;99.42;156400.41;4982739;28;20460;-83
2023/09/17 05:44:22;;;;;;;8.80;7.90;;;;;;;19.64;98.93;156410.84;4991471;28;20909;-84
2023/09/17 05:46:53;;;;;;;8.63;7.77;;;;;;;19.70;98.73;156427.78;4985813;28;20444;-83
2023/09/17 05:49:20;;;;;;;7.53;6.90;;;;;;;19.73;98.82;156434.28;4988530;28;20448;-84
2023/09/17 05:51:49;;;;;;;7.93;7.00;;;;;;;19.77;98.44;156446.06;4991595;28;21105;-84
2023/09/17 05:54:17;;;;;;;8.30;7.50;;;;;;;19.81;98.37;156456.47;4975194;28;20460;-83
2023/09/17 05:56:44;;;;;;;9.20;7.00;;;;;;;19.86;98.05;156468.19;4978699;28;20572;-83
2023/09/17 05:59:14;;;;;;;7.73;7.03;;;;;;;19.91;98.15;156481.22;5006901;28;20453;-83
2023/09/17 06:01:41;;;;;;;8.23;7.43;;;;;;;19.94;98.01;156489.06;4973169;28;20459;-83
2023/09/17 06:04:09;;;;;;;8.17;7.30;;;;;;;20.01;97.99;156507.34;4998482;28;20463;-84
2023/09/17 06:06:35;;;;;;;7.87;7.17;;;;;;;20.13;97.67;156538.63;4988734;28;20568;-84
2023/09/17 06:09:02;;;;;;;7.80;7.00;;;;;;;20.29;97.34;156580.41;4974871;28;20531;-84
2023/09/17 06:11:30;;;;;;;8.33;6.50;;;;;;;20.48;96.62;156629.97;4990624;28;20468;-84
2023/09/17 06:13:56;;;;;;;7.20;6.33;;;;;;;20.71;95.14;156687.34;4989723;28;20487;-84
2023/09/17 06:16:23;;;;;;;7.23;6.60;;;;;;;20.79;93.76;156709.53;4964242;28;20484;-84
2023/09/17 06:18:50;;;;;;;7.83;6.50;;;;;;;20.83;92.78;156718.69;4974622;28;20461;-84
2023/09/17 06:21:18;;;;;;;8.13;6.60;;;;;;;20.82;92.78;156716.06;4980705;28;20464;-84
2023/09/17 06:23:44;;;;;;;6.97;6.30;;;;;;;20.82;92.86;156716.06;4988304;28;20480;-84
2023/09/17 06:26:12;;;;;;;8.90;8.00;;;;;;;20.79;92.94;156709.53;4973033;28;20456;-84
2023/09/17 06:28:38;;;;;;;7.80;7.10;;;;;;;20.79;92.92;156708.22;4983268;28;20967;-84
2023/09/17 06:31:05;;;;;;;7.00;6.40;;;;;;;20.90;93.22;156736.94;4973940;28;20549;-85
2023/09/17 06:33:33;;;;;;;7.43;6.60;;;;;;;21.17;92.70;156808.78;5002271;28;20560;-84
2023/09/17 06:36:00;;;;;;;6.60;6.00;;;;;;;21.48;90.82;156887.06;4980870;28;20994;-84
2023/09/17 06:38:28;;;;;;;6.90;6.20;;;;;;;21.77;89.81;156964.09;4983465;28;20464;-84
2023/09/17 06:40:55;;;;;;;7.30;6.60;;;;;;;22.15;87.48;157060.78;4979172;28;20460;-84
2023/09/17 06:43:22;;;;;;;6.30;5.70;;;;;;;22.48;85.69;157145.69;4994492;28;20464;-84
2023/09/17 06:45:48;;;;;;;5.83;5.33;;;;;;;22.83;83.64;157238.47;4988790;28;20456;-84
2023/09/17 06:48:15;;;;;;;7.30;6.47;;;;;;;23.15;82.16;157320.81;4987729;28;20823;-84
2023/09/17 06:50:41;;;;;;;6.90;6.20;;;;;;;23.41;80.46;157387.50;4986919;28;20479;-85
2023/09/17 06:53:08;;;;;;;7.10;6.50;;;;;;;23.61;79.72;157441.13;4987064;28;20453;-84
2023/09/17 06:55:36;;;;;;;6.03;5.43;;;;;;;23.87;78.75;157507.78;4988031;28;20488;-85
2023/09/17 06:58:02;;;;;;;6.30;5.70;;;;;;;24.08;77.62;157562.75;5004275;28;20456;-84
2023/09/17 07:00:31;;;;;;;6.90;6.30;;;;;;;24.27;77.12;157609.81;4988232;28;20807;-84
2023/09/17 07:02:58;;;;;;;6.40;5.80;;;;;;;24.47;75.89;157663.44;4987232;28;20454;-85
2023/09/17 07:05:24;;;;;;;7.13;6.47;;;;;;;24.57;75.80;157688.31;5007025;28;20449;-84
2023/09/17 07:07:51;;;;;;;6.53;5.90;;;;;;;24.71;75.21;157724.91;4987591;28;20468;-84
2023/09/17 07:10:18;;;;;;;7.03;6.10;;;;;;;24.88;74.02;157769.47;5002544;28;20455;-84
2023/09/17 07:12:46;;;;;;;6.47;5.90;;;;;;;24.97;72.72;157793.00;4969741;28;20490;-84
2023/09/17 07:15:12;;;;;;;7.20;6.60;;;;;;;25.00;72.28;157800.84;5006269;28;20460;-84
2023/09/17 07:17:40;;;;;;;7.10;6.50;;;;;;;24.92;72.32;157779.91;5004274;28;20462;-84
2023/09/17 07:20:07;;;;;;;6.60;5.90;;;;;;;24.87;72.50;157766.84;4984529;28;21004;-83
2023/09/17 07:22:34;;;;;;;7.20;6.50;;;;;;;24.80;71.99;157748.53;4987362;28;20465;-84
2023/09/17 07:25:00;;;;;;;6.43;5.83;;;;;;;24.64;72.70;157707.94;5006243;28;20444;-84
2023/09/17 07:27:29;;;;;;;6.97;6.33;;;;;;;24.41;73.00;157647.72;4970631;28;20463;-85
2023/09/17 07:29:57;;;;;;;6.00;5.50;;;;;;;24.23;73.97;157601.97;4982635;28;20456;-84
2023/09/17 07:32:27;;;;;;;8.57;5.77;;;;;;;24.15;74.62;157579.72;4990546;28;20484;-84
2023/09/17 07:34:53;;;;;;;7.50;6.27;;;;;;;24.17;74.79;157585.00;5008138;28;20453;-84
2023/09/17 07:37:20;;;;;;;6.33;5.80;;;;;;;24.16;74.57;157583.69;4986099;28;20556;-85
2023/09/17 07:39:47;;;;;;;6.47;5.90;;;;;;;24.14;74.72;157578.47;5007162;28;20471;-85
2023/09/17 07:42:14;;;;;;;6.63;6.03;;;;;;;24.18;73.73;157587.56;5007100;28;20552;-85
2023/09/17 07:44:41;;;;;;;6.10;5.50;;;;;;;24.22;73.62;157598.06;5003901;28;21298;-85
2023/09/17 07:47:09;;;;;;;6.23;5.73;;;;;;;24.21;73.26;157596.75;5004444;28;20468;-85
2023/09/17 07:49:36;;;;;;;6.40;5.80;;;;;;;24.21;73.96;157595.44;5005770;28;20817;-84
2023/09/17 07:52:03;;;;;;;6.37;5.80;;;;;;;24.20;73.82;157592.78;4977220;28;20483;-84
2023/09/17 07:54:30;;;;;;;6.00;5.40;;;;;;;24.13;73.49;157574.50;4984014;28;20989;-84
2023/09/17 07:56:56;;;;;;;6.97;6.27;;;;;;;24.08;74.32;157562.75;4963353;28;20623;-85
2023/09/17 07:59:23;;;;;;;7.53;6.17;;;;;;;24.09;74.54;157565.34;4985814;28;20452;-85
2023/09/17 08:01:51;;;;;;;6.60;5.57;;;;;;;24.16;75.22;157583.69;4973684;28;20877;-85
2023/09/17 08:04:19;;;;;;;6.60;5.93;;;;;;;24.28;75.18;157612.44;4981794;28;20441;-85
2023/09/17 08:06:46;;;;;;;6.47;5.87;;;;;;;24.54;74.88;157680.47;4986021;28;21005;-86
2023/09/17 08:09:13;;;;;;;7.23;5.50;;;;;;;24.76;74.02;157739.31;4986994;28;20461;-86
2023/09/17 08:11:40;;;;;;;5.80;5.20;;;;;;;24.94;72.64;157783.84;4969183;28;20483;-85
2023/09/17 08:14:07;;;;;;;6.63;5.80;;;;;;;24.96;71.83;157790.41;4991602;28;20458;-85
2023/09/17 08:16:34;;;;;;;7.20;6.10;;;;;;;24.98;71.97;157795.63;4986110;28;20856;-85
2023/09/17 08:19:00;;;;;;;6.23;5.63;;;;;;;25.15;71.96;157840.09;4987398;28;20582;-85
2023/09/17 08:21:29;;;;;;;5.97;5.40;;;;;;;25.34;71.33;157889.81;4985635;28;20448;-85
2023/09/17 08:23:55;;;;;;;5.47;4.97;;;;;;;25.55;70.50;157943.53;5004161;28;20457;-84
2023/09/17 08:26:22;;;;;;;5.83;5.33;;;;;;;25.70;69.49;157982.81;4986193;28;20460;-84
2023/09/17 08:28:49;;;;;;;8.30;5.77;;;;;;;25.85;69.45;158020.78;4987424;28;20527;-84
2023/09/17 08:31:16;;;;;;;6.50;5.90;;;;;;;25.90;68.50;158033.84;4983076;28;20512;-84
2023/09/17 08:33:45;;;;;;;5.47;4.97;;;;;;;25.98;68.32;158054.81;5004554;28;20462;-83
2023/09/17 08:36:11;;;;;;;6.50;5.80;;;;;;;26.01;69.01;158064.00;5004928;28;20460;-84
2023/09/17 08:38:39;;;;;;;6.63;5.80;;;;;;;26.02;68.26;158065.31;5001986;28;20462;-85
2023/09/17 08:41:07;;;;;;;6.70;5.63;;;;;;;26.05;67.76;158073.16;4986100;28;20975;-85
2023/09/17 08:43:34;;;;;;;6.20;5.60;;;;;;;26.19;68.38;158109.84;5004785;28;20848;-85
2023/09/17 08:46:03;;;;;;;7.40;5.50;;;;;;;26.37;67.17;158155.72;4987864;28;20463;-86
2023/09/17 08:48:30;;;;;;;5.57;4.93;;;;;;;26.40;66.91;158164.84;4987394;28;20461;-84
2023/09/17 08:50:57;;;;;;;5.30;4.90;;;;;;;26.40;66.16;158163.53;5002088;28;20876;-85
2023/09/17 08:53:27;;;;;;;5.03;4.53;;;;;;;26.45;66.59;158177.94;4981826;28;20935;-85
2023/09/17 08:55:57;;;;;;;5.30;4.80;;;;;;;26.47;66.99;158181.91;4984074;28;20488;-85
2023/09/17 08:58:27;;;;;;;7.37;5.00;;;;;;;26.43;67.34;158172.72;4982639;28;20463;-85
2023/09/17 09:00:58;;;;;;;5.33;4.83;;;;;;;26.42;66.04;158170.06;4969471;28;21010;-86
2023/09/17 09:03:26;;;;;;;5.47;4.97;;;;;;;26.38;66.77;158158.31;4987904;28;20883;-85
2023/09/17 09:05:55;;;;;;;6.20;5.20;;;;;;;26.39;66.92;158162.25;4986568;28;20457;-85
2023/09/17 09:08:22;;;;;;;5.60;5.10;;;;;;;26.40;65.98;158164.84;4979456;28;20999;-85
2023/09/17 09:10:50;;;;;;;6.37;4.80;;;;;;;26.47;66.19;158181.91;4968924;28;20460;-85
2023/09/17 09:13:18;;;;;;;5.63;5.10;;;;;;;26.49;65.13;158187.13;4987881;28;20489;-85
2023/09/17 09:15:45;;;;;;;5.60;5.00;;;;;;;26.57;63.91;158209.41;4988088;28;20457;-85
2023/09/17 09:18:12;;;;;;;4.47;4.07;;;;;;;26.59;62.71;158214.63;4984682;28;20469;-85
2023/09/17 09:20:39;;;;;;;5.00;4.50;;;;;;;26.61;62.10;158219.84;4984298;28;20967;-86
2023/09/17 09:23:06;;;;;;;5.43;4.53;;;;;;;26.58;62.68;158212.00;4975229;28;20458;-86
2023/09/17 09:25:33;;;;;;;6.70;4.40;;;;;;;26.63;63.10;158222.50;4983108;28;20560;-85
2023/09/17 09:28:00;;;;;;;4.23;3.83;;;;;;;26.69;61.71;158238.22;4982517;28;20991;-84
2023/09/17 09:30:29;;;;;;;4.60;4.17;;;;;;;26.72;62.98;158246.03;4982691;28;20465;-85
2023/09/17 09:32:56;;;;;;;4.53;3.97;;;;;;;26.70;62.45;158240.81;4980915;28;20972;-84
2023/09/17 09:35:23;;;;;;;4.70;4.30;;;;;;;26.76;62.81;158256.53;4981318;28;20800;-84
2023/09/17 09:37:53;;;;;;;5.67;4.70;;;;;;;26.70;61.97;158242.13;4982541;28;20531;-84
2023/09/17 09:40:21;;;;;;;5.43;4.43;;;;;;;26.74;61.33;158252.59;4982533;28;20449;-84
2023/09/17 09:42:48;;;;;;;6.33;3.97;;;;;;;26.80;60.76;158268.38;4980660;28;20462;-84
2023/09/17 09:45:24;;;;;;;5.43;3.47;;;;;;;26.85;58.49;158280.16;4962430;28;20549;-84
2023/09/17 09:47:54;;;;;;;6.23;3.40;;;;;;;26.87;58.81;158285.44;4982938;28;20472;-84
2023/09/17 09:50:24;;;;;;;3.70;3.40;;;;;;;26.82;58.45;158272.31;4978372;28;20453;-85
2023/09/17 09:52:51;;;;;;;2.80;2.53;;;;;;;26.80;58.44;158267.06;4991565;28;20493;-85
2023/09/17 09:55:18;;;;;;;3.67;3.37;;;;;;;26.89;58.66;158290.66;4984077;28;20508;-85
2023/09/17 09:57:46;;;;;;;4.40;3.87;;;;;;;26.82;60.17;158273.59;4994875;28;20460;-85
2023/09/17 10:00:16;;;;;;;5.40;4.10;;;;;;;26.82;59.34;158272.31;5000773;28;20628;-85
2023/09/17 10:02:44;;;;;;;4.83;3.70;;;;;;;26.83;60.03;158274.91;5000255;28;20515;-84
2023/09/17 10:05:16;;;;;;;5.27;3.93;;;;;;;26.83;58.83;158274.91;5004351;28;20451;-84
2023/09/17 10:07:46;;;;;;;4.13;3.13;;;;;;;26.75;58.60;158253.91;4977378;28;20473;-84
2023/09/17 10:10:13;;;;;;;5.00;3.67;;;;;;;26.67;60.27;158232.94;5001392;28;20929;-85
2023/09/17 10:12:39;;;;;;;4.10;3.43;;;;;;;26.63;59.51;158225.09;5006868;28;20484;-85
2023/09/17 10:15:07;;;;;;;6.40;3.77;;;;;;;26.68;58.73;158235.59;4990340;28;20464;-84
2023/09/17 10:17:36;;;;;;;6.83;3.43;;;;;;;26.73;59.20;158248.69;4988224;28;20456;-84
2023/09/17 10:20:06;;;;;;;5.07;3.20;;;;;;;26.84;58.19;158278.88;4970451;28;20450;-84
2023/09/17 10:22:35;;;;;;;8.73;3.67;;;;;;;26.90;58.70;158293.28;5007763;28;20778;-84
2023/09/17 10:25:04;;;;;;;4.23;3.50;;;;;;;26.91;58.21;158295.88;4987104;28;20567;-84
2023/09/17 10:27:31;;;;;;;5.00;3.50;;;;;;;26.94;57.80;158303.75;4984148;28;20453;-84
2023/09/17 10:29:59;;;;;;;4.50;3.20;;;;;;;26.90;58.03;158294.56;4983389;28;20876;-85
2023/09/17 10:32:26;;;;;;;4.73;3.40;;;;;;;26.88;58.38;158289.34;4982107;28;20486;-85
2023/09/17 10:34:57;;;;;;;4.07;3.40;;;;;;;27.00;57.55;158319.47;5001140;28;20449;-84
2023/09/17 10:37:24;;;;;;;6.87;3.60;;;;;;;27.07;56.43;158339.13;4982729;28;20463;-85
2023/09/17 10:39:53;;;;;;;6.10;3.70;;;;;;;27.04;57.30;158329.94;5006313;28;20556;-84
2023/09/17 10:42:21;;;;;;;5.40;3.57;;;;;;;26.98;56.89;158314.25;5007259;28;20875;-84
2023/09/17 10:44:48;;;;;;;5.70;3.90;;;;;;;27.00;57.31;158319.47;5007931;28;20518;-84
2023/09/17 10:47:16;;;;;;;8.53;3.70;;;;;;;26.98;57.11;158314.25;4978407;28;20971;-84
2023/09/17 10:49:43;;;;;;;3.60;3.13;;;;;;;27.03;57.48;158327.34;4992045;28;21041;-84
2023/09/17 10:52:09;;;;;;;4.23;3.40;;;;;;;27.09;56.51;158343.03;4989643;28;20484;-85
2023/09/17 10:54:36;;;;;;;7.30;3.80;;;;;;;27.07;56.36;158337.81;5011465;28;20473;-84
2023/09/17 10:57:07;;;;;;;3.93;2.83;;;;;;;27.09;55.76;158343.03;4996307;28;20543;-83
2023/09/17 10:59:34;;;;;;;5.00;3.20;;;;;;;27.00;55.51;158319.47;4968933;28;20457;-84
2023/09/17 11:02:00;;;;;;;5.13;3.27;;;;;;;26.89;56.24;158290.66;5008284;28;20468;-84
2023/09/17 11:04:28;;;;;;;4.13;3.00;;;;;;;26.94;56.22;158305.06;5010135;28;20452;-85
2023/09/17 11:06:55;;;;;;;3.83;2.80;;;;;;;27.05;55.60;158332.56;4981880;28;21017;-85
2023/09/17 11:09:22;;;;;;;4.80;2.87;;;;;;;27.07;56.64;158339.13;5006189;28;20451;-85
2023/09/17 11:11:48;;;;;;;4.87;2.67;;;;;;;27.13;55.56;158353.53;4979609;28;20456;-84
2023/09/17 11:14:16;;;;;;;3.50;2.60;;;;;;;27.20;54.98;158371.88;5006278;28;20487;-85
2023/09/17 11:16:43;;;;;;;3.33;2.60;;;;;;;27.29;54.61;158394.16;4988941;28;20979;-84
2023/09/17 11:19:11;;;;;;;4.10;2.87;;;;;;;27.22;55.35;158377.09;4988766;28;20548;-84
2023/09/17 11:21:38;;;;;;;4.50;2.80;;;;;;;27.25;55.46;158384.97;4988747;28;20494;-85
2023/09/17 11:24:10;;;;;;;4.00;2.97;;;;;;;27.23;56.45;158379.75;4987253;28;20860;-84
2023/09/17 11:26:38;;;;;;;4.87;3.17;;;;;;;27.22;55.05;158375.81;5004848;28;20823;-85